Mechanicsvlle, Virginia
Current Conditions -  °F | °C
As of 10:54 AM on Saturday 20 Dec 2014 (Local Time) from KRIC Reporting Station
Overcast Overcast  
Wind Chill:   Ceiling: 10000
Heat Index:   Visibility: 10mi
Dew Point: -6°   Wind: 5mph
Humidity: 55%   Direction: 30°NNE
Pressure: 30.33"   Gusts: NA
Location:  37.634°N, 77.2585°W
Report Text: KRIC 201554Z 03004KT 10SM BKN100 OVC150 02/M06 A3033 RMK AO2 SLP277 T00221061
Loading
Personal Weather Stations






























Interactive Weather Map New forecast layout! Learn more

10-Day Weather Forecast

Advertisements
Track Severe Weather on mobile